sensor_id;sensor_type;location;lat;lon;timestamp;P1;durP1;ratioP1;P2;durP2;ratioP2
65071;SDS011;51663;52.310;17.016;2024-03-17T00:02:44;9.53;;;3.70;;
65071;SDS011;51663;52.310;17.016;2024-03-17T00:05:45;9.13;;;3.37;;
65071;SDS011;51663;52.310;17.016;2024-03-17T00:08:47;6.37;;;3.03;;
65071;SDS011;51663;52.310;17.016;2024-03-17T00:11:49;7.63;;;2.93;;
65071;SDS011;51663;52.310;17.016;2024-03-17T00:14:50;10.97;;;3.60;;
65071;SDS011;51663;52.310;17.016;2024-03-17T00:17:52;7.83;;;2.90;;
65071;SDS011;51663;52.310;17.016;2024-03-17T00:20:55;6.67;;;2.50;;
65071;SDS011;51663;52.310;17.016;2024-03-17T00:23:56;6.97;;;3.23;;
65071;SDS011;51663;52.310;17.016;2024-03-17T00:26:58;11.87;;;2.97;;
65071;SDS011;51663;52.310;17.016;2024-03-17T00:30:00;11.03;;;3.50;;
65071;SDS011;51663;52.310;17.016;2024-03-17T00:33:02;11.83;;;3.30;;
65071;SDS011;51663;52.310;17.016;2024-03-17T00:36:04;11.83;;;3.50;;
65071;SDS011;51663;52.310;17.016;2024-03-17T00:39:06;6.73;;;2.60;;
65071;SDS011;51663;52.310;17.016;2024-03-17T00:42:07;10.33;;;3.10;;
65071;SDS011;51663;52.310;17.016;2024-03-17T00:45:08;8.17;;;2.93;;
65071;SDS011;51663;52.310;17.016;2024-03-17T00:48:14;8.43;;;3.77;;
65071;SDS011;51663;52.310;17.016;2024-03-17T00:51:15;10.67;;;2.83;;
65071;SDS011;51663;52.310;17.016;2024-03-17T00:54:18;11.40;;;3.67;;
65071;SDS011;51663;52.310;17.016;2024-03-17T00:57:19;9.87;;;3.30;;
65071;SDS011;51663;52.310;17.016;2024-03-17T01:00:21;8.67;;;2.63;;
65071;SDS011;51663;52.310;17.016;2024-03-17T01:03:22;6.80;;;2.47;;
65071;SDS011;51663;52.310;17.016;2024-03-17T01:06:23;10.53;;;3.57;;
65071;SDS011;51663;52.310;17.016;2024-03-17T01:09:24;7.27;;;2.90;;
65071;SDS011;51663;52.310;17.016;2024-03-17T01:12:26;10.20;;;2.53;;
65071;SDS011;51663;52.310;17.016;2024-03-17T01:15:27;7.70;;;3.10;;
65071;SDS011;51663;52.310;17.016;2024-03-17T01:18:29;11.37;;;2.87;;
65071;SDS011;51663;52.310;17.016;2024-03-17T01:21:30;7.33;;;2.67;;
65071;SDS011;51663;52.310;17.016;2024-03-17T01:24:31;10.37;;;2.73;;
65071;SDS011;51663;52.310;17.016;2024-03-17T01:27:34;9.40;;;2.63;;
65071;SDS011;51663;52.310;17.016;2024-03-17T01:30:37;9.50;;;2.40;;
65071;SDS011;51663;52.310;17.016;2024-03-17T01:33:38;6.87;;;2.23;;
65071;SDS011;51663;52.310;17.016;2024-03-17T01:36:40;6.97;;;2.47;;
65071;SDS011;51663;52.310;17.016;2024-03-17T01:39:42;7.13;;;2.43;;
65071;SDS011;51663;52.310;17.016;2024-03-17T01:42:43;6.77;;;2.50;;
65071;SDS011;51663;52.310;17.016;2024-03-17T01:45:45;8.53;;;3.13;;
65071;SDS011;51663;52.310;17.016;2024-03-17T01:48:47;8.87;;;3.40;;
65071;SDS011;51663;52.310;17.016;2024-03-17T01:51:48;10.97;;;3.27;;
65071;SDS011;51663;52.310;17.016;2024-03-17T01:54:51;10.77;;;3.43;;
65071;SDS011;51663;52.310;17.016;2024-03-17T01:57:53;7.47;;;2.47;;
65071;SDS011;51663;52.310;17.016;2024-03-17T02:00:56;8.13;;;3.23;;
65071;SDS011;51663;52.310;17.016;2024-03-17T02:03:57;8.03;;;2.83;;
65071;SDS011;51663;52.310;17.016;2024-03-17T02:06:59;8.07;;;2.87;;
65071;SDS011;51663;52.310;17.016;2024-03-17T02:10:01;8.10;;;3.03;;
65071;SDS011;51663;52.310;17.016;2024-03-17T02:13:05;7.80;;;2.80;;
65071;SDS011;51663;52.310;17.016;2024-03-17T02:16:06;12.37;;;3.37;;
65071;SDS011;51663;52.310;17.016;2024-03-17T02:19:08;8.33;;;2.87;;
65071;SDS011;51663;52.310;17.016;2024-03-17T02:22:13;8.83;;;3.30;;
65071;SDS011;51663;52.310;17.016;2024-03-17T02:25:18;11.07;;;2.77;;
65071;SDS011;51663;52.310;17.016;2024-03-17T02:28:19;11.37;;;2.50;;
65071;SDS011;51663;52.310;17.016;2024-03-17T02:31:21;6.90;;;2.43;;
65071;SDS011;51663;52.310;17.016;2024-03-17T02:34:23;8.10;;;2.63;;
65071;SDS011;51663;52.310;17.016;2024-03-17T02:37:25;9.97;;;2.47;;
65071;SDS011;51663;52.310;17.016;2024-03-17T02:40:27;8.87;;;2.70;;
65071;SDS011;51663;52.310;17.016;2024-03-17T02:43:29;10.93;;;2.60;;
65071;SDS011;51663;52.310;17.016;2024-03-17T02:46:30;8.43;;;2.27;;
65071;SDS011;51663;52.310;17.016;2024-03-17T02:49:32;10.00;;;2.40;;
65071;SDS011;51663;52.310;17.016;2024-03-17T02:52:44;8.43;;;2.50;;
65071;SDS011;51663;52.310;17.016;2024-03-17T02:55:45;7.77;;;2.63;;
65071;SDS011;51663;52.310;17.016;2024-03-17T02:58:47;7.03;;;2.40;;
65071;SDS011;51663;52.310;17.016;2024-03-17T03:01:49;10.87;;;2.33;;
65071;SDS011;51663;52.310;17.016;2024-03-17T03:04:51;11.47;;;2.40;;
65071;SDS011;51663;52.310;17.016;2024-03-17T03:07:53;5.13;;;2.00;;
65071;SDS011;51663;52.310;17.016;2024-03-17T03:10:54;7.97;;;2.27;;
65071;SDS011;51663;52.310;17.016;2024-03-17T03:13:56;5.83;;;2.20;;
65071;SDS011;51663;52.310;17.016;2024-03-17T03:16:57;10.10;;;2.37;;
65071;SDS011;51663;52.310;17.016;2024-03-17T03:19:59;7.00;;;1.97;;
65071;SDS011;51663;52.310;17.016;2024-03-17T03:23:02;11.43;;;2.50;;
65071;SDS011;51663;52.310;17.016;2024-03-17T03:26:04;8.20;;;2.23;;
65071;SDS011;51663;52.310;17.016;2024-03-17T03:29:05;5.47;;;2.10;;
65071;SDS011;51663;52.310;17.016;2024-03-17T03:32:07;6.00;;;2.83;;
65071;SDS011;51663;52.310;17.016;2024-03-17T03:35:08;11.73;;;2.40;;
65071;SDS011;51663;52.310;17.016;2024-03-17T03:38:10;10.10;;;2.20;;
65071;SDS011;51663;52.310;17.016;2024-03-17T03:41:15;6.87;;;1.90;;
65071;SDS011;51663;52.310;17.016;2024-03-17T03:44:17;7.60;;;2.10;;
65071;SDS011;51663;52.310;17.016;2024-03-17T03:47:18;7.83;;;1.63;;
65071;SDS011;51663;52.310;17.016;2024-03-17T03:50:20;7.73;;;2.50;;
65071;SDS011;51663;52.310;17.016;2024-03-17T03:53:22;8.13;;;2.47;;
65071;SDS011;51663;52.310;17.016;2024-03-17T03:56:24;10.57;;;2.47;;
65071;SDS011;51663;52.310;17.016;2024-03-17T03:59:26;6.13;;;1.60;;
65071;SDS011;51663;52.310;17.016;2024-03-17T04:02:27;9.33;;;2.07;;
65071;SDS011;51663;52.310;17.016;2024-03-17T04:05:32;8.73;;;2.03;;
65071;SDS011;51663;52.310;17.016;2024-03-17T04:08:35;6.07;;;1.90;;
65071;SDS011;51663;52.310;17.016;2024-03-17T04:11:38;8.50;;;2.57;;
65071;SDS011;51663;52.310;17.016;2024-03-17T04:14:41;6.90;;;2.27;;
65071;SDS011;51663;52.310;17.016;2024-03-17T04:17:42;7.60;;;2.33;;
65071;SDS011;51663;52.310;17.016;2024-03-17T04:20:43;6.87;;;1.97;;
65071;SDS011;51663;52.310;17.016;2024-03-17T04:23:45;7.27;;;1.97;;
65071;SDS011;51663;52.310;17.016;2024-03-17T04:26:46;6.87;;;2.00;;
65071;SDS011;51663;52.310;17.016;2024-03-17T04:29:49;13.83;;;2.50;;
65071;SDS011;51663;52.310;17.016;2024-03-17T04:32:52;11.97;;;1.80;;
65071;SDS011;51663;52.310;17.016;2024-03-17T04:35:53;6.57;;;2.03;;
65071;SDS011;51663;52.310;17.016;2024-03-17T04:38:55;9.43;;;1.70;;
65071;SDS011;51663;52.310;17.016;2024-03-17T04:41:56;8.90;;;2.40;;
65071;SDS011;51663;52.310;17.016;2024-03-17T04:44:58;7.33;;;1.80;;
65071;SDS011;51663;52.310;17.016;2024-03-17T04:47:59;6.60;;;1.87;;
65071;SDS011;51663;52.310;17.016;2024-03-17T04:51:00;7.57;;;2.07;;
65071;SDS011;51663;52.310;17.016;2024-03-17T04:54:01;7.60;;;1.80;;
65071;SDS011;51663;52.310;17.016;2024-03-17T04:57:08;8.63;;;1.97;;
65071;SDS011;51663;52.310;17.016;2024-03-17T05:00:10;8.63;;;1.70;;
65071;SDS011;51663;52.310;17.016;2024-03-17T05:03:13;10.17;;;1.80;;
65071;SDS011;51663;52.310;17.016;2024-03-17T05:06:14;6.93;;;1.80;;
65071;SDS011;51663;52.310;17.016;2024-03-17T05:09:16;11.50;;;2.63;;
65071;SDS011;51663;52.310;17.016;2024-03-17T05:12:17;10.00;;;2.00;;
65071;SDS011;51663;52.310;17.016;2024-03-17T05:15:18;10.30;;;2.33;;
65071;SDS011;51663;52.310;17.016;2024-03-17T05:18:20;5.57;;;2.20;;
65071;SDS011;51663;52.310;17.016;2024-03-17T05:21:23;4.80;;;2.10;;
65071;SDS011;51663;52.310;17.016;2024-03-17T05:24:24;7.03;;;1.80;;
65071;SDS011;51663;52.310;17.016;2024-03-17T05:27:25;7.00;;;2.00;;
65071;SDS011;51663;52.310;17.016;2024-03-17T05:30:27;8.40;;;1.80;;
65071;SDS011;51663;52.310;17.016;2024-03-17T05:33:28;7.63;;;1.90;;
65071;SDS011;51663;52.310;17.016;2024-03-17T05:36:29;7.07;;;2.00;;
65071;SDS011;51663;52.310;17.016;2024-03-17T05:39:33;6.67;;;1.90;;
65071;SDS011;51663;52.310;17.016;2024-03-17T05:42:34;6.20;;;1.97;;
65071;SDS011;51663;52.310;17.016;2024-03-17T05:45:35;11.70;;;2.00;;
65071;SDS011;51663;52.310;17.016;2024-03-17T05:48:37;4.17;;;1.53;;
65071;SDS011;51663;52.310;17.016;2024-03-17T05:51:40;8.73;;;1.80;;
65071;SDS011;51663;52.310;17.016;2024-03-17T05:54:41;7.57;;;2.03;;
65071;SDS011;51663;52.310;17.016;2024-03-17T05:57:42;6.33;;;1.90;;
65071;SDS011;51663;52.310;17.016;2024-03-17T06:00:43;6.10;;;2.17;;
65071;SDS011;51663;52.310;17.016;2024-03-17T06:03:45;7.60;;;1.97;;
65071;SDS011;51663;52.310;17.016;2024-03-17T06:06:46;9.50;;;2.30;;
65071;SDS011;51663;52.310;17.016;2024-03-17T06:09:49;10.40;;;2.80;;
65071;SDS011;51663;52.310;17.016;2024-03-17T06:12:50;9.67;;;2.90;;
65071;SDS011;51663;52.310;17.016;2024-03-17T06:15:52;5.37;;;2.27;;
65071;SDS011;51663;52.310;17.016;2024-03-17T06:18:54;6.93;;;1.87;;
65071;SDS011;51663;52.310;17.016;2024-03-17T06:21:55;8.40;;;2.20;;
65071;SDS011;51663;52.310;17.016;2024-03-17T06:24:57;8.33;;;1.97;;
65071;SDS011;51663;52.310;17.016;2024-03-17T06:27:58;9.63;;;2.17;;
65071;SDS011;51663;52.310;17.016;2024-03-17T06:31:02;7.83;;;1.77;;
65071;SDS011;51663;52.310;17.016;2024-03-17T06:34:07;6.10;;;1.80;;
65071;SDS011;51663;52.310;17.016;2024-03-17T06:37:08;5.47;;;2.13;;
65071;SDS011;51663;52.310;17.016;2024-03-17T06:40:11;4.57;;;1.60;;
65071;SDS011;51663;52.310;17.016;2024-03-17T06:43:14;9.27;;;2.20;;
65071;SDS011;51663;52.310;17.016;2024-03-17T06:46:16;6.47;;;2.10;;
65071;SDS011;51663;52.310;17.016;2024-03-17T06:49:17;9.40;;;2.37;;
65071;SDS011;51663;52.310;17.016;2024-03-17T06:52:18;6.00;;;2.30;;
65071;SDS011;51663;52.310;17.016;2024-03-17T06:55:19;8.07;;;2.40;;
65071;SDS011;51663;52.310;17.016;2024-03-17T06:58:25;9.23;;;2.37;;
65071;SDS011;51663;52.310;17.016;2024-03-17T07:01:28;8.70;;;2.10;;
65071;SDS011;51663;52.310;17.016;2024-03-17T07:04:29;5.13;;;2.43;;
65071;SDS011;51663;52.310;17.016;2024-03-17T07:07:30;6.17;;;1.70;;
65071;SDS011;51663;52.310;17.016;2024-03-17T07:10:32;4.50;;;1.97;;
65071;SDS011;51663;52.310;17.016;2024-03-17T07:13:34;7.43;;;1.93;;
65071;SDS011;51663;52.310;17.016;2024-03-17T07:16:37;8.50;;;2.03;;
65071;SDS011;51663;52.310;17.016;2024-03-17T07:19:38;7.33;;;2.17;;
65071;SDS011;51663;52.310;17.016;2024-03-17T07:22:39;7.23;;;2.37;;
65071;SDS011;51663;52.310;17.016;2024-03-17T07:25:40;5.77;;;2.03;;
65071;SDS011;51663;52.310;17.016;2024-03-17T07:28:43;6.40;;;1.87;;
65071;SDS011;51663;52.310;17.016;2024-03-17T07:31:45;8.13;;;2.63;;
65071;SDS011;51663;52.310;17.016;2024-03-17T07:34:46;6.53;;;2.07;;
65071;SDS011;51663;52.310;17.016;2024-03-17T07:37:47;5.97;;;2.47;;
65071;SDS011;51663;52.310;17.016;2024-03-17T07:40:59;7.47;;;1.90;;
65071;SDS011;51663;52.310;17.016;2024-03-17T07:44:01;4.67;;;1.80;;
65071;SDS011;51663;52.310;17.016;2024-03-17T07:47:03;6.80;;;1.83;;
65071;SDS011;51663;52.310;17.016;2024-03-17T07:50:04;8.03;;;1.83;;
65071;SDS011;51663;52.310;17.016;2024-03-17T07:53:07;7.77;;;2.60;;
65071;SDS011;51663;52.310;17.016;2024-03-17T07:56:09;8.50;;;2.40;;
65071;SDS011;51663;52.310;17.016;2024-03-17T07:59:11;9.13;;;2.30;;
65071;SDS011;51663;52.310;17.016;2024-03-17T08:02:17;6.97;;;2.30;;
65071;SDS011;51663;52.310;17.016;2024-03-17T08:05:19;8.07;;;2.17;;
65071;SDS011;51663;52.310;17.016;2024-03-17T08:08:20;6.50;;;2.10;;
65071;SDS011;51663;52.310;17.016;2024-03-17T08:11:22;4.30;;;1.53;;
65071;SDS011;51663;52.310;17.016;2024-03-17T08:14:24;4.57;;;1.77;;
65071;SDS011;51663;52.310;17.016;2024-03-17T08:17:27;4.27;;;1.97;;
65071;SDS011;51663;52.310;17.016;2024-03-17T08:20:28;5.63;;;2.07;;
65071;SDS011;51663;52.310;17.016;2024-03-17T08:23:30;5.73;;;2.03;;
65071;SDS011;51663;52.310;17.016;2024-03-17T08:26:31;3.37;;;2.13;;
65071;SDS011;51663;52.310;17.016;2024-03-17T08:29:32;3.67;;;2.00;;
65071;SDS011;51663;52.310;17.016;2024-03-17T08:32:36;3.87;;;2.63;;
65071;SDS011;51663;52.310;17.016;2024-03-17T08:35:37;6.13;;;2.40;;
65071;SDS011;51663;52.310;17.016;2024-03-17T08:38:38;3.63;;;2.33;;
65071;SDS011;51663;52.310;17.016;2024-03-17T08:41:40;3.93;;;2.20;;
65071;SDS011;51663;52.310;17.016;2024-03-17T08:44:41;3.07;;;2.00;;
65071;SDS011;51663;52.310;17.016;2024-03-17T08:47:42;4.00;;;2.27;;
65071;SDS011;51663;52.310;17.016;2024-03-17T08:50:49;7.47;;;2.60;;
65071;SDS011;51663;52.310;17.016;2024-03-17T08:53:54;3.70;;;2.23;;
65071;SDS011;51663;52.310;17.016;2024-03-17T08:56:57;3.50;;;2.50;;
65071;SDS011;51663;52.310;17.016;2024-03-17T08:59:59;5.47;;;3.20;;
65071;SDS011;51663;52.310;17.016;2024-03-17T09:03:00;4.73;;;2.90;;
65071;SDS011;51663;52.310;17.016;2024-03-17T09:06:21;4.50;;;2.80;;
65071;SDS011;51663;52.310;17.016;2024-03-17T09:09:33;6.20;;;2.10;;
65071;SDS011;51663;52.310;17.016;2024-03-17T09:12:35;3.93;;;2.57;;
65071;SDS011;51663;52.310;17.016;2024-03-17T09:15:37;5.90;;;3.17;;
65071;SDS011;51663;52.310;17.016;2024-03-17T09:18:38;3.97;;;3.07;;
65071;SDS011;51663;52.310;17.016;2024-03-17T09:21:39;3.37;;;2.60;;
65071;SDS011;51663;52.310;17.016;2024-03-17T09:24:40;4.77;;;2.80;;
65071;SDS011;51663;52.310;17.016;2024-03-17T09:27:42;5.40;;;2.60;;
65071;SDS011;51663;52.310;17.016;2024-03-17T09:30:46;4.03;;;2.87;;
65071;SDS011;51663;52.310;17.016;2024-03-17T09:33:48;4.20;;;2.50;;
65071;SDS011;51663;52.310;17.016;2024-03-17T09:36:50;5.13;;;2.70;;
65071;SDS011;51663;52.310;17.016;2024-03-17T09:39:51;5.27;;;3.60;;
65071;SDS011;51663;52.310;17.016;2024-03-17T09:42:52;4.90;;;3.13;;
65071;SDS011;51663;52.310;17.016;2024-03-17T09:45:53;6.53;;;3.87;;
65071;SDS011;51663;52.310;17.016;2024-03-17T09:48:59;4.27;;;2.93;;
65071;SDS011;51663;52.310;17.016;2024-03-17T09:52:00;5.90;;;3.17;;
65071;SDS011;51663;52.310;17.016;2024-03-17T09:55:08;6.63;;;3.53;;
65071;SDS011;51663;52.310;17.016;2024-03-17T09:58:16;6.13;;;3.97;;
65071;SDS011;51663;52.310;17.016;2024-03-17T10:01:20;4.87;;;3.57;;
65071;SDS011;51663;52.310;17.016;2024-03-17T10:04:31;7.07;;;3.90;;
65071;SDS011;51663;52.310;17.016;2024-03-17T10:07:37;5.23;;;3.63;;
65071;SDS011;51663;52.310;17.016;2024-03-17T10:10:39;5.87;;;3.63;;
65071;SDS011;51663;52.310;17.016;2024-03-17T10:13:44;5.67;;;3.87;;
65071;SDS011;51663;52.310;17.016;2024-03-17T10:16:47;5.03;;;3.33;;
65071;SDS011;51663;52.310;17.016;2024-03-17T10:19:48;5.00;;;3.70;;
65071;SDS011;51663;52.310;17.016;2024-03-17T10:23:05;7.27;;;4.50;;
65071;SDS011;51663;52.310;17.016;2024-03-17T10:26:13;4.93;;;3.80;;
65071;SDS011;51663;52.310;17.016;2024-03-17T10:32:32;6.03;;;3.40;;
65071;SDS011;51663;52.310;17.016;2024-03-17T10:38:37;3.90;;;3.13;;
65071;SDS011;51663;52.310;17.016;2024-03-17T10:41:51;3.27;;;2.53;;
65071;SDS011;51663;52.310;17.016;2024-03-17T10:44:52;5.67;;;2.80;;
65071;SDS011;51663;52.310;17.016;2024-03-17T10:47:56;4.03;;;2.60;;
65071;SDS011;51663;52.310;17.016;2024-03-17T10:51:01;3.53;;;2.90;;
65071;SDS011;51663;52.310;17.016;2024-03-17T10:54:03;2.80;;;1.93;;
65071;SDS011;51663;52.310;17.016;2024-03-17T11:00:27;2.27;;;2.07;;
65071;SDS011;51663;52.310;17.016;2024-03-17T11:03:31;2.00;;;1.80;;
65071;SDS011;51663;52.310;17.016;2024-03-17T11:06:33;1.77;;;1.60;;
65071;SDS011;51663;52.310;17.016;2024-03-17T11:09:35;2.80;;;1.90;;
65071;SDS011;51663;52.310;17.016;2024-03-17T11:15:45;2.63;;;2.30;;
65071;SDS011;51663;52.310;17.016;2024-03-17T11:18:46;5.43;;;2.60;;
65071;SDS011;51663;52.310;17.016;2024-03-17T11:21:47;3.70;;;3.30;;
65071;SDS011;51663;52.310;17.016;2024-03-17T11:24:49;5.43;;;3.37;;
65071;SDS011;51663;52.310;17.016;2024-03-17T11:27:51;5.07;;;3.93;;
65071;SDS011;51663;52.310;17.016;2024-03-17T11:30:53;4.87;;;4.37;;
65071;SDS011;51663;52.310;17.016;2024-03-17T11:37:41;5.43;;;3.87;;
65071;SDS011;51663;52.310;17.016;2024-03-17T11:40:43;6.07;;;3.87;;
65071;SDS011;51663;52.310;17.016;2024-03-17T11:43:44;4.90;;;4.00;;
65071;SDS011;51663;52.310;17.016;2024-03-17T11:47:02;3.67;;;3.20;;
65071;SDS011;51663;52.310;17.016;2024-03-17T11:50:07;4.47;;;3.13;;
65071;SDS011;51663;52.310;17.016;2024-03-17T11:53:11;4.27;;;3.07;;
65071;SDS011;51663;52.310;17.016;2024-03-17T11:56:12;3.40;;;2.97;;
65071;SDS011;51663;52.310;17.016;2024-03-17T11:59:23;2.67;;;2.47;;
65071;SDS011;51663;52.310;17.016;2024-03-17T12:02:25;4.13;;;2.87;;
65071;SDS011;51663;52.310;17.016;2024-03-17T12:05:28;3.47;;;2.60;;
65071;SDS011;51663;52.310;17.016;2024-03-17T12:08:32;2.77;;;2.20;;
65071;SDS011;51663;52.310;17.016;2024-03-17T12:11:34;3.80;;;2.03;;
65071;SDS011;51663;52.310;17.016;2024-03-17T12:14:36;2.73;;;2.40;;
65071;SDS011;51663;52.310;17.016;2024-03-17T12:17:38;3.10;;;2.80;;
65071;SDS011;51663;52.310;17.016;2024-03-17T12:20:39;3.83;;;3.10;;
65071;SDS011;51663;52.310;17.016;2024-03-17T12:23:41;4.83;;;3.17;;
65071;SDS011;51663;52.310;17.016;2024-03-17T12:26:43;5.70;;;3.50;;
65071;SDS011;51663;52.310;17.016;2024-03-17T12:29:46;5.67;;;4.23;;
65071;SDS011;51663;52.310;17.016;2024-03-17T12:32:49;4.60;;;3.83;;
65071;SDS011;51663;52.310;17.016;2024-03-17T12:35:51;4.37;;;3.50;;
65071;SDS011;51663;52.310;17.016;2024-03-17T12:38:55;3.70;;;3.10;;
65071;SDS011;51663;52.310;17.016;2024-03-17T12:42:30;3.50;;;2.80;;
65071;SDS011;51663;52.310;17.016;2024-03-17T12:45:33;3.93;;;2.43;;
65071;SDS011;51663;52.310;17.016;2024-03-17T12:48:34;2.90;;;2.57;;
65071;SDS011;51663;52.310;17.016;2024-03-17T12:51:38;3.53;;;2.10;;
65071;SDS011;51663;52.310;17.016;2024-03-17T12:54:41;4.13;;;1.80;;
65071;SDS011;51663;52.310;17.016;2024-03-17T12:57:48;1.67;;;1.50;;
65071;SDS011;51663;52.310;17.016;2024-03-17T13:01:08;3.40;;;2.10;;
65071;SDS011;51663;52.310;17.016;2024-03-17T13:04:13;2.63;;;1.60;;
65071;SDS011;51663;52.310;17.016;2024-03-17T13:07:17;2.00;;;1.90;;
65071;SDS011;51663;52.310;17.016;2024-03-17T13:10:19;2.40;;;1.43;;
65071;SDS011;51663;52.310;17.016;2024-03-17T13:13:21;2.53;;;1.47;;
65071;SDS011;51663;52.310;17.016;2024-03-17T13:16:22;1.90;;;1.37;;
65071;SDS011;51663;52.310;17.016;2024-03-17T13:19:23;2.23;;;1.30;;
65071;SDS011;51663;52.310;17.016;2024-03-17T13:22:24;1.40;;;1.10;;
65071;SDS011;51663;52.310;17.016;2024-03-17T13:25:27;2.60;;;1.10;;
65071;SDS011;51663;52.310;17.016;2024-03-17T13:28:36;8.80;;;7.47;;
65071;SDS011;51663;52.310;17.016;2024-03-17T13:31:38;37.13;;;15.03;;
65071;SDS011;51663;52.310;17.016;2024-03-17T13:34:39;12.23;;;6.77;;
65071;SDS011;51663;52.310;17.016;2024-03-17T13:37:40;3.23;;;2.50;;
65071;SDS011;51663;52.310;17.016;2024-03-17T13:40:42;1.73;;;1.40;;
65071;SDS011;51663;52.310;17.016;2024-03-17T13:43:43;2.23;;;1.27;;
65071;SDS011;51663;52.310;17.016;2024-03-17T13:46:45;1.80;;;1.10;;
65071;SDS011;51663;52.310;17.016;2024-03-17T13:49:46;1.10;;;1.00;;
65071;SDS011;51663;52.310;17.016;2024-03-17T13:52:47;4.03;;;1.80;;
65071;SDS011;51663;52.310;17.016;2024-03-17T13:55:49;3.73;;;2.30;;
65071;SDS011;51663;52.310;17.016;2024-03-17T13:58:52;1.60;;;1.40;;
65071;SDS011;51663;52.310;17.016;2024-03-17T14:01:53;1.60;;;0.93;;
65071;SDS011;51663;52.310;17.016;2024-03-17T14:04:54;2.63;;;1.17;;
65071;SDS011;51663;52.310;17.016;2024-03-17T14:07:56;2.40;;;1.47;;
65071;SDS011;51663;52.310;17.016;2024-03-17T14:10:57;1.37;;;0.87;;
65071;SDS011;51663;52.310;17.016;2024-03-17T14:13:59;2.00;;;1.83;;
65071;SDS011;51663;52.310;17.016;2024-03-17T14:17:00;1.50;;;1.40;;
65071;SDS011;51663;52.310;17.016;2024-03-17T14:20:02;1.30;;;1.20;;
65071;SDS011;51663;52.310;17.016;2024-03-17T14:23:12;0.93;;;0.70;;
65071;SDS011;51663;52.310;17.016;2024-03-17T14:26:18;1.87;;;1.70;;
65071;SDS011;51663;52.310;17.016;2024-03-17T14:29:19;3.23;;;1.20;;
65071;SDS011;51663;52.310;17.016;2024-03-17T14:32:21;1.73;;;1.20;;
65071;SDS011;51663;52.310;17.016;2024-03-17T14:35:22;1.10;;;1.00;;
65071;SDS011;51663;52.310;17.016;2024-03-17T14:38:23;17.33;;;7.60;;
65071;SDS011;51663;52.310;17.016;2024-03-17T14:41:29;1.27;;;0.90;;
65071;SDS011;51663;52.310;17.016;2024-03-17T14:44:31;0.87;;;0.80;;
65071;SDS011;51663;52.310;17.016;2024-03-17T14:47:34;1.17;;;0.70;;
65071;SDS011;51663;52.310;17.016;2024-03-17T14:50:37;1.27;;;0.83;;
65071;SDS011;51663;52.310;17.016;2024-03-17T14:53:39;3.10;;;0.80;;
65071;SDS011;51663;52.310;17.016;2024-03-17T14:56:48;1.43;;;1.00;;
65071;SDS011;51663;52.310;17.016;2024-03-17T14:59:49;0.90;;;0.70;;
65071;SDS011;51663;52.310;17.016;2024-03-17T15:02:51;0.97;;;0.70;;
65071;SDS011;51663;52.310;17.016;2024-03-17T15:05:52;1.37;;;1.00;;
65071;SDS011;51663;52.310;17.016;2024-03-17T15:08:55;1.33;;;1.03;;
65071;SDS011;51663;52.310;17.016;2024-03-17T15:11:56;2.50;;;1.20;;
65071;SDS011;51663;52.310;17.016;2024-03-17T15:14:57;1.20;;;1.00;;
65071;SDS011;51663;52.310;17.016;2024-03-17T15:17:59;0.90;;;0.80;;
65071;SDS011;51663;52.310;17.016;2024-03-17T15:21:00;0.80;;;0.70;;
65071;SDS011;51663;52.310;17.016;2024-03-17T15:24:02;0.80;;;0.70;;
65071;SDS011;51663;52.310;17.016;2024-03-17T15:27:04;0.80;;;0.70;;
65071;SDS011;51663;52.310;17.016;2024-03-17T15:30:05;0.90;;;0.80;;
65071;SDS011;51663;52.310;17.016;2024-03-17T15:33:07;1.03;;;0.80;;
65071;SDS011;51663;52.310;17.016;2024-03-17T15:36:08;2.80;;;1.60;;
65071;SDS011;51663;52.310;17.016;2024-03-17T15:39:10;0.80;;;0.50;;
65071;SDS011;51663;52.310;17.016;2024-03-17T15:42:14;1.13;;;0.80;;
65071;SDS011;51663;52.310;17.016;2024-03-17T15:45:16;0.77;;;0.57;;
65071;SDS011;51663;52.310;17.016;2024-03-17T15:48:21;0.80;;;0.80;;
65071;SDS011;51663;52.310;17.016;2024-03-17T15:51:22;0.67;;;0.67;;
65071;SDS011;51663;52.310;17.016;2024-03-17T15:54:23;0.70;;;0.70;;
65071;SDS011;51663;52.310;17.016;2024-03-17T15:57:25;1.83;;;0.60;;
65071;SDS011;51663;52.310;17.016;2024-03-17T16:00:26;0.80;;;0.70;;
65071;SDS011;51663;52.310;17.016;2024-03-17T16:03:31;0.80;;;0.77;;
65071;SDS011;51663;52.310;17.016;2024-03-17T16:06:34;1.70;;;0.70;;
65071;SDS011;51663;52.310;17.016;2024-03-17T16:09:35;1.27;;;1.00;;
65071;SDS011;51663;52.310;17.016;2024-03-17T16:12:37;1.00;;;0.90;;
65071;SDS011;51663;52.310;17.016;2024-03-17T16:15:38;1.27;;;0.97;;
65071;SDS011;51663;52.310;17.016;2024-03-17T16:18:40;1.47;;;0.90;;
65071;SDS011;51663;52.310;17.016;2024-03-17T16:21:42;1.70;;;1.00;;
65071;SDS011;51663;52.310;17.016;2024-03-17T16:24:44;1.27;;;1.03;;
65071;SDS011;51663;52.310;17.016;2024-03-17T16:27:49;1.37;;;0.77;;
65071;SDS011;51663;52.310;17.016;2024-03-17T16:30:52;1.43;;;1.10;;
65071;SDS011;51663;52.310;17.016;2024-03-17T16:33:56;1.73;;;0.90;;
65071;SDS011;51663;52.310;17.016;2024-03-17T16:37:00;4.63;;;1.07;;
65071;SDS011;51663;52.310;17.016;2024-03-17T16:40:01;1.10;;;0.70;;
65071;SDS011;51663;52.310;17.016;2024-03-17T16:43:05;1.40;;;1.10;;
65071;SDS011;51663;52.310;17.016;2024-03-17T16:49:40;1.80;;;1.10;;
65071;SDS011;51663;52.310;17.016;2024-03-17T16:52:42;1.30;;;0.93;;
65071;SDS011;51663;52.310;17.016;2024-03-17T16:55:43;1.40;;;0.93;;
65071;SDS011;51663;52.310;17.016;2024-03-17T16:58:45;1.40;;;1.30;;
65071;SDS011;51663;52.310;17.016;2024-03-17T17:01:46;1.80;;;1.70;;
65071;SDS011;51663;52.310;17.016;2024-03-17T17:04:48;2.50;;;2.00;;
65071;SDS011;51663;52.310;17.016;2024-03-17T17:07:51;4.37;;;2.43;;
65071;SDS011;51663;52.310;17.016;2024-03-17T17:10:52;3.23;;;2.17;;
65071;SDS011;51663;52.310;17.016;2024-03-17T17:13:53;2.63;;;1.87;;
65071;SDS011;51663;52.310;17.016;2024-03-17T17:16:56;2.43;;;1.30;;
65071;SDS011;51663;52.310;17.016;2024-03-17T17:19:58;2.10;;;1.60;;
65071;SDS011;51663;52.310;17.016;2024-03-17T17:23:00;2.93;;;1.70;;
65071;SDS011;51663;52.310;17.016;2024-03-17T17:26:02;6.73;;;5.10;;
65071;SDS011;51663;52.310;17.016;2024-03-17T17:29:04;2.23;;;1.70;;
65071;SDS011;51663;52.310;17.016;2024-03-17T17:32:06;2.57;;;1.70;;
65071;SDS011;51663;52.310;17.016;2024-03-17T17:35:08;2.23;;;1.50;;
65071;SDS011;51663;52.310;17.016;2024-03-17T17:38:10;2.57;;;2.07;;
65071;SDS011;51663;52.310;17.016;2024-03-17T17:41:11;2.33;;;2.13;;
65071;SDS011;51663;52.310;17.016;2024-03-17T17:44:15;1.57;;;1.20;;
65071;SDS011;51663;52.310;17.016;2024-03-17T17:47:17;8.17;;;6.03;;
65071;SDS011;51663;52.310;17.016;2024-03-17T17:50:18;5.33;;;3.83;;
65071;SDS011;51663;52.310;17.016;2024-03-17T17:53:20;1.67;;;1.30;;
65071;SDS011;51663;52.310;17.016;2024-03-17T17:56:21;3.47;;;2.20;;
65071;SDS011;51663;52.310;17.016;2024-03-17T17:59:24;1.87;;;1.60;;
65071;SDS011;51663;52.310;17.016;2024-03-17T18:02:25;10.93;;;6.10;;
65071;SDS011;51663;52.310;17.016;2024-03-17T18:05:29;5.33;;;4.47;;
65071;SDS011;51663;52.310;17.016;2024-03-17T18:08:31;2.40;;;1.53;;
65071;SDS011;51663;52.310;17.016;2024-03-17T18:11:37;1.60;;;1.37;;
65071;SDS011;51663;52.310;17.016;2024-03-17T18:14:38;1.80;;;1.40;;
65071;SDS011;51663;52.310;17.016;2024-03-17T18:17:39;1.73;;;1.37;;
65071;SDS011;51663;52.310;17.016;2024-03-17T18:20:40;2.70;;;1.77;;
65071;SDS011;51663;52.310;17.016;2024-03-17T18:23:42;2.80;;;1.70;;